sensor_id;sensor_type;location;lat;lon;timestamp;pressure;altitude;pressure_sealevel;temperature;humidity
6668;BME280;3370;47.712;9.082;2024-03-23T00:52:21;96558.31;;;8.79;85.22
6668;BME280;3370;47.712;9.082;2024-03-23T00:55:07;96543.69;;;8.62;85.61
6668;BME280;3370;47.712;9.082;2024-03-23T00:57:54;96553.16;;;8.60;85.77
6668;BME280;3370;47.712;9.082;2024-03-23T01:00:40;96545.34;;;8.63;85.31
6668;BME280;3370;47.712;9.082;2024-03-23T01:03:26;96542.78;;;8.63;84.57
6668;BME280;3370;47.712;9.082;2024-03-23T01:06:12;96537.66;;;8.63;85.36
6668;BME280;3370;47.712;9.082;2024-03-23T01:08:58;96542.72;;;8.46;86.36
6668;BME280;3370;47.712;9.082;2024-03-23T01:11:44;96537.00;;;8.39;86.66
6668;BME280;3370;47.712;9.082;2024-03-23T01:14:30;96536.69;;;8.26;87.76
6668;BME280;3370;47.712;9.082;2024-03-23T01:17:16;96540.31;;;8.22;87.99
6668;BME280;3370;47.712;9.082;2024-03-23T01:20:02;96531.09;;;8.18;88.56
6668;BME280;3370;47.712;9.082;2024-03-23T01:22:48;96524.69;;;8.29;87.96
6668;BME280;3370;47.712;9.082;2024-03-23T01:25:35;96522.72;;;8.34;87.74
6668;BME280;3370;47.712;9.082;2024-03-23T01:28:21;96516.44;;;8.41;87.28
6668;BME280;3370;47.712;9.082;2024-03-23T01:31:07;96510.84;;;8.52;86.45
6668;BME280;3370;47.712;9.082;2024-03-23T01:33:53;96514.41;;;8.49;86.61
6668;BME280;3370;47.712;9.082;2024-03-23T01:36:40;96511.22;;;8.44;86.63
6668;BME280;3370;47.712;9.082;2024-03-23T01:39:26;96505.31;;;8.42;87.33
6668;BME280;3370;47.712;9.082;2024-03-23T01:42:12;96507.09;;;8.40;87.12
6668;BME280;3370;47.712;9.082;2024-03-23T01:44:58;96502.69;;;8.43;87.41
6668;BME280;3370;47.712;9.082;2024-03-23T01:47:44;96494.94;;;8.45;87.35
6668;BME280;3370;47.712;9.082;2024-03-23T01:50:30;96492.16;;;8.50;88.67
6668;BME280;3370;47.712;9.082;2024-03-23T01:53:19;96489.09;;;8.41;89.23
6668;BME280;3370;47.712;9.082;2024-03-23T01:56:07;96474.28;;;8.29;91.27
6668;BME280;3370;47.712;9.082;2024-03-23T01:58:53;96469.78;;;8.34;90.75
6668;BME280;3370;47.712;9.082;2024-03-23T02:01:39;96457.72;;;8.36;92.03
6668;BME280;3370;47.712;9.082;2024-03-23T02:04:25;96460.53;;;8.30;93.07
6668;BME280;3370;47.712;9.082;2024-03-23T02:07:12;96448.59;;;8.31;92.93
6668;BME280;3370;47.712;9.082;2024-03-23T02:09:58;96461.25;;;8.34;92.77
6668;BME280;3370;47.712;9.082;2024-03-23T02:12:44;96448.66;;;8.48;91.17
6668;BME280;3370;47.712;9.082;2024-03-23T02:15:30;96442.22;;;8.58;89.05
6668;BME280;3370;47.712;9.082;2024-03-23T02:18:16;96437.22;;;8.55;88.71
6668;BME280;3370;47.712;9.082;2024-03-23T02:21:03;96430.97;;;8.43;89.48
6668;BME280;3370;47.712;9.082;2024-03-23T02:23:49;96426.66;;;8.44;89.26
6668;BME280;3370;47.712;9.082;2024-03-23T02:26:35;96431.16;;;8.58;87.88
6668;BME280;3370;47.712;9.082;2024-03-23T02:29:21;96416.72;;;8.55;88.23
6668;BME280;3370;47.712;9.082;2024-03-23T02:32:08;96416.81;;;8.35;89.78
6668;BME280;3370;47.712;9.082;2024-03-23T02:34:57;96409.75;;;8.40;91.25
6668;BME280;3370;47.712;9.082;2024-03-23T02:37:43;96404.50;;;8.43;91.58
6668;BME280;3370;47.712;9.082;2024-03-23T02:40:29;96380.94;;;8.35;93.16
6668;BME280;3370;47.712;9.082;2024-03-23T02:43:15;96373.38;;;8.32;94.15
6668;BME280;3370;47.712;9.082;2024-03-23T02:46:01;96381.25;;;8.29;94.61
6668;BME280;3370;47.712;9.082;2024-03-23T02:48:49;96382.34;;;8.42;92.90
6668;BME280;3370;47.712;9.082;2024-03-23T02:51:35;96385.97;;;8.55;91.49
6668;BME280;3370;47.712;9.082;2024-03-23T02:54:21;96372.09;;;8.42;91.34
6668;BME280;3370;47.712;9.082;2024-03-23T02:57:07;96366.13;;;8.41;92.13
6668;BME280;3370;47.712;9.082;2024-03-23T02:59:53;96365.25;;;8.23;93.15
6668;BME280;3370;47.712;9.082;2024-03-23T03:02:39;96362.97;;;8.17;93.09
6668;BME280;3370;47.712;9.082;2024-03-23T03:05:26;96355.94;;;8.03;94.77
6668;BME280;3370;47.712;9.082;2024-03-23T03:08:12;96369.06;;;8.15;92.99
6668;BME280;3370;47.712;9.082;2024-03-23T03:10:58;96349.88;;;8.04;94.58
6668;BME280;3370;47.712;9.082;2024-03-23T03:13:44;96348.31;;;8.02;95.94
6668;BME280;3370;47.712;9.082;2024-03-23T03:16:30;96349.13;;;8.02;96.84
6668;BME280;3370;47.712;9.082;2024-03-23T03:19:16;96351.94;;;7.98;97.21
6668;BME280;3370;47.712;9.082;2024-03-23T03:22:02;96358.97;;;7.93;98.05
6668;BME280;3370;47.712;9.082;2024-03-23T03:24:50;96364.22;;;7.90;98.56
6668;BME280;3370;47.712;9.082;2024-03-23T03:27:36;96365.22;;;7.87;98.39
6668;BME280;3370;47.712;9.082;2024-03-23T03:30:22;96362.56;;;8.07;94.53
6668;BME280;3370;47.712;9.082;2024-03-23T03:33:08;96362.84;;;8.01;93.10
6668;BME280;3370;47.712;9.082;2024-03-23T03:35:55;96360.78;;;7.91;93.85
6668;BME280;3370;47.712;9.082;2024-03-23T03:38:41;96366.50;;;7.96;94.70
6668;BME280;3370;47.712;9.082;2024-03-23T03:41:27;96358.00;;;7.95;94.56
6668;BME280;3370;47.712;9.082;2024-03-23T03:44:13;96364.69;;;8.17;93.03
6668;BME280;3370;47.712;9.082;2024-03-23T03:46:59;96365.31;;;8.03;93.17
6668;BME280;3370;47.712;9.082;2024-03-23T03:49:45;96361.34;;;7.78;94.45
6668;BME280;3370;47.712;9.082;2024-03-23T03:52:31;96347.78;;;7.76;95.46
6668;BME280;3370;47.712;9.082;2024-03-23T03:55:17;96341.69;;;7.79;95.68
6668;BME280;3370;47.712;9.082;2024-03-23T03:58:03;96347.63;;;7.79;95.67
6668;BME280;3370;47.712;9.082;2024-03-23T04:00:50;96332.25;;;7.79;96.57
6668;BME280;3370;47.712;9.082;2024-03-23T04:03:36;96332.19;;;7.81;97.61
6668;BME280;3370;47.712;9.082;2024-03-23T04:06:22;96318.50;;;7.82;98.18
6668;BME280;3370;47.712;9.082;2024-03-23T04:09:09;96316.91;;;7.98;97.76
6668;BME280;3370;47.712;9.082;2024-03-23T04:11:56;96313.66;;;7.95;98.75
6668;BME280;3370;47.712;9.082;2024-03-23T04:14:42;96309.59;;;7.91;99.61
6668;BME280;3370;47.712;9.082;2024-03-23T04:17:28;96300.84;;;7.95;100.00
6668;BME280;3370;47.712;9.082;2024-03-23T04:20:17;96285.19;;;8.01;100.00
6668;BME280;3370;47.712;9.082;2024-03-23T04:23:03;96285.06;;;8.04;100.00
6668;BME280;3370;47.712;9.082;2024-03-23T04:25:50;96287.63;;;8.04;99.88
6668;BME280;3370;47.712;9.082;2024-03-23T04:28:37;96282.81;;;8.15;99.82
6668;BME280;3370;47.712;9.082;2024-03-23T04:31:23;96270.69;;;8.01;100.00
6668;BME280;3370;47.712;9.082;2024-03-23T04:34:09;96265.47;;;8.03;100.00
6668;BME280;3370;47.712;9.082;2024-03-23T04:36:56;96261.13;;;8.05;100.00
6668;BME280;3370;47.712;9.082;2024-03-23T04:39:42;96249.34;;;8.01;100.00
6668;BME280;3370;47.712;9.082;2024-03-23T04:42:28;96248.94;;;8.28;100.00
6668;BME280;3370;47.712;9.082;2024-03-23T04:45:14;96241.72;;;8.18;100.00
6668;BME280;3370;47.712;9.082;2024-03-23T04:48:00;96226.19;;;8.04;100.00
6668;BME280;3370;47.712;9.082;2024-03-23T04:50:46;96223.13;;;7.96;100.00
6668;BME280;3370;47.712;9.082;2024-03-23T04:53:32;96219.50;;;7.82;100.00
6668;BME280;3370;47.712;9.082;2024-03-23T04:56:19;96212.97;;;7.77;100.00
6668;BME280;3370;47.712;9.082;2024-03-23T04:59:05;96209.41;;;7.79;100.00
6668;BME280;3370;47.712;9.082;2024-03-23T05:01:51;96211.78;;;7.84;100.00
6668;BME280;3370;47.712;9.082;2024-03-23T05:04:37;96205.16;;;7.80;100.00
6668;BME280;3370;47.712;9.082;2024-03-23T05:07:23;96202.22;;;7.87;100.00
6668;BME280;3370;47.712;9.082;2024-03-23T05:10:10;96193.78;;;8.03;100.00
6668;BME280;3370;47.712;9.082;2024-03-23T05:12:56;96190.81;;;8.12;99.47
6668;BME280;3370;47.712;9.082;2024-03-23T05:15:42;96188.81;;;8.35;97.37
6668;BME280;3370;47.712;9.082;2024-03-23T05:18:29;96179.06;;;8.43;96.62
6668;BME280;3370;47.712;9.082;2024-03-23T05:21:15;96182.38;;;8.45;96.50
6668;BME280;3370;47.712;9.082;2024-03-23T05:24:01;96186.78;;;8.41;96.67
6668;BME280;3370;47.712;9.082;2024-03-23T05:26:47;96178.47;;;8.71;96.61
6668;BME280;3370;47.712;9.082;2024-03-23T05:29:33;96185.91;;;9.57;91.25
6668;BME280;3370;47.712;9.082;2024-03-23T05:32:19;96194.16;;;9.94;88.23
6668;BME280;3370;47.712;9.082;2024-03-23T05:35:06;96212.84;;;9.96;89.53
6668;BME280;3370;47.712;9.082;2024-03-23T05:37:53;96215.13;;;9.86;90.28
6668;BME280;3370;47.712;9.082;2024-03-23T05:40:39;96242.03;;;9.63;93.72
6668;BME280;3370;47.712;9.082;2024-03-23T05:43:26;96264.34;;;9.63;91.25
6668;BME280;3370;47.712;9.082;2024-03-23T05:46:13;96265.47;;;9.57;94.95
6668;BME280;3370;47.712;9.082;2024-03-23T05:49:01;96263.09;;;9.54;97.43
6668;BME280;3370;47.712;9.082;2024-03-23T05:51:48;96271.16;;;9.46;97.32
6668;BME280;3370;47.712;9.082;2024-03-23T05:54:35;96286.47;;;9.32;99.38
6668;BME280;3370;47.712;9.082;2024-03-23T05:57:21;96294.25;;;9.30;98.74
6668;BME280;3370;47.712;9.082;2024-03-23T06:00:08;96289.91;;;9.15;100.00
6668;BME280;3370;47.712;9.082;2024-03-23T06:03:01;96284.25;;;9.08;100.00
6668;BME280;3370;47.712;9.082;2024-03-23T06:05:47;96285.69;;;9.14;100.00
6668;BME280;3370;47.712;9.082;2024-03-23T06:08:33;96285.63;;;9.31;100.00
6668;BME280;3370;47.712;9.082;2024-03-23T06:11:19;96280.38;;;9.50;100.00
6668;BME280;3370;47.712;9.082;2024-03-23T06:14:05;96268.22;;;9.54;100.00
6668;BME280;3370;47.712;9.082;2024-03-23T06:16:51;96275.16;;;9.68;100.00
6668;BME280;3370;47.712;9.082;2024-03-23T06:19:37;96283.44;;;9.57;100.00
6668;BME280;3370;47.712;9.082;2024-03-23T06:22:23;96296.25;;;9.57;100.00
6668;BME280;3370;47.712;9.082;2024-03-23T06:25:09;96291.03;;;9.43;100.00
6668;BME280;3370;47.712;9.082;2024-03-23T06:27:58;96298.91;;;9.39;100.00
6668;BME280;3370;47.712;9.082;2024-03-23T06:30:48;96296.63;;;9.33;100.00
6668;BME280;3370;47.712;9.082;2024-03-23T06:33:34;96302.91;;;9.28;100.00
6668;BME280;3370;47.712;9.082;2024-03-23T06:36:20;96310.31;;;9.34;100.00
6668;BME280;3370;47.712;9.082;2024-03-23T06:39:06;96316.19;;;9.36;100.00
6668;BME280;3370;47.712;9.082;2024-03-23T06:41:53;96327.94;;;9.40;100.00
6668;BME280;3370;47.712;9.082;2024-03-23T06:44:40;96312.88;;;9.50;100.00
6668;BME280;3370;47.712;9.082;2024-03-23T06:47:26;96308.69;;;9.49;100.00
6668;BME280;3370;47.712;9.082;2024-03-23T06:50:12;96328.66;;;9.59;100.00
6668;BME280;3370;47.712;9.082;2024-03-23T06:52:58;96321.44;;;9.66;100.00
6668;BME280;3370;47.712;9.082;2024-03-23T06:55:51;96333.53;;;9.64;100.00
6668;BME280;3370;47.712;9.082;2024-03-23T06:58:38;96332.06;;;9.76;97.34
6668;BME280;3370;47.712;9.082;2024-03-23T07:01:24;96323.84;;;9.69;97.13
6668;BME280;3370;47.712;9.082;2024-03-23T07:04:10;96325.25;;;9.75;96.50
6668;BME280;3370;47.712;9.082;2024-03-23T07:06:56;96319.47;;;9.71;98.04
6668;BME280;3370;47.712;9.082;2024-03-23T07:09:42;96325.94;;;9.78;95.45
6668;BME280;3370;47.712;9.082;2024-03-23T07:12:28;96320.72;;;9.80;94.50
6668;BME280;3370;47.712;9.082;2024-03-23T07:15:14;96316.50;;;9.79;94.71
6668;BME280;3370;47.712;9.082;2024-03-23T07:18:01;96331.56;;;9.85;93.03
6668;BME280;3370;47.712;9.082;2024-03-23T07:20:55;96326.94;;;9.92;93.28
6668;BME280;3370;47.712;9.082;2024-03-23T07:23:44;96347.56;;;9.90;95.09
6668;BME280;3370;47.712;9.082;2024-03-23T07:26:30;96359.97;;;9.82;94.85
6668;BME280;3370;47.712;9.082;2024-03-23T07:29:16;96371.09;;;9.83;95.20
6668;BME280;3370;47.712;9.082;2024-03-23T07:32:03;96363.38;;;9.83;94.57
6668;BME280;3370;47.712;9.082;2024-03-23T07:34:49;96366.69;;;9.85;95.59
6668;BME280;3370;47.712;9.082;2024-03-23T07:37:35;96373.16;;;9.76;96.08
6668;BME280;3370;47.712;9.082;2024-03-23T07:40:21;96391.19;;;9.74;97.27
6668;BME280;3370;47.712;9.082;2024-03-23T07:43:07;96398.31;;;9.69;99.06
6668;BME280;3370;47.712;9.082;2024-03-23T07:45:53;96407.06;;;9.65;99.15
6668;BME280;3370;47.712;9.082;2024-03-23T07:48:40;96403.34;;;9.71;97.70
6668;BME280;3370;47.712;9.082;2024-03-23T07:51:28;96404.78;;;9.76;99.79
6668;BME280;3370;47.712;9.082;2024-03-23T07:54:14;96411.84;;;9.89;97.30
6668;BME280;3370;47.712;9.082;2024-03-23T07:57:00;96421.09;;;9.91;95.69
6668;BME280;3370;47.712;9.082;2024-03-23T07:59:46;96434.63;;;9.95;95.75
6668;BME280;3370;47.712;9.082;2024-03-23T08:02:32;96448.53;;;9.91;96.16
6668;BME280;3370;47.712;9.082;2024-03-23T08:05:18;96452.34;;;9.84;96.40
6668;BME280;3370;47.712;9.082;2024-03-23T08:08:04;96479.50;;;9.88;95.13
6668;BME280;3370;47.712;9.082;2024-03-23T08:10:51;96484.91;;;9.83;96.39
6668;BME280;3370;47.712;9.082;2024-03-23T08:13:44;96513.53;;;9.75;98.10
6668;BME280;3370;47.712;9.082;2024-03-23T08:16:30;96517.00;;;9.39;88.69
6668;BME280;3370;47.712;9.082;2024-03-23T08:19:16;96531.81;;;9.15;85.99
6668;BME280;3370;47.712;9.082;2024-03-23T08:22:02;96559.00;;;8.83;85.35
6668;BME280;3370;47.712;9.082;2024-03-23T08:24:49;96581.91;;;8.48;84.91
6668;BME280;3370;47.712;9.082;2024-03-23T08:27:35;96588.50;;;8.33;87.56
6668;BME280;3370;47.712;9.082;2024-03-23T08:30:21;96605.06;;;8.05;90.38
6668;BME280;3370;47.712;9.082;2024-03-23T08:33:07;96600.25;;;7.77;91.23
6668;BME280;3370;47.712;9.082;2024-03-23T08:35:58;96599.78;;;7.67;96.11
6668;BME280;3370;47.712;9.082;2024-03-23T08:38:44;96590.38;;;7.47;98.95
6668;BME280;3370;47.712;9.082;2024-03-23T08:41:30;96593.41;;;7.35;100.00
6668;BME280;3370;47.712;9.082;2024-03-23T08:44:16;96610.44;;;7.36;100.00
6668;BME280;3370;47.712;9.082;2024-03-23T08:47:02;96622.66;;;7.28;100.00
6668;BME280;3370;47.712;9.082;2024-03-23T08:49:49;96639.56;;;7.32;100.00
6668;BME280;3370;47.712;9.082;2024-03-23T08:52:35;96648.38;;;7.47;98.22
6668;BME280;3370;47.712;9.082;2024-03-23T08:55:21;96658.41;;;7.52;98.38
6668;BME280;3370;47.712;9.082;2024-03-23T08:58:07;96652.06;;;7.62;96.42
6668;BME280;3370;47.712;9.082;2024-03-23T09:00:56;96645.03;;;7.67;92.15
6668;BME280;3370;47.712;9.082;2024-03-23T09:03:43;96654.41;;;7.66;91.78
6668;BME280;3370;47.712;9.082;2024-03-23T09:06:29;96667.88;;;7.72;90.03
6668;BME280;3370;47.712;9.082;2024-03-23T09:09:15;96666.22;;;7.71;86.02
6668;BME280;3370;47.712;9.082;2024-03-23T09:12:01;96667.25;;;7.65;86.08
6668;BME280;3370;47.712;9.082;2024-03-23T09:14:47;96675.97;;;7.61;84.64
6668;BME280;3370;47.712;9.082;2024-03-23T09:17:33;96685.31;;;7.62;87.39
6668;BME280;3370;47.712;9.082;2024-03-23T09:20:19;96682.75;;;7.62;88.40
6668;BME280;3370;47.712;9.082;2024-03-23T09:23:05;96672.28;;;7.68;88.43
6668;BME280;3370;47.712;9.082;2024-03-23T09:25:51;96673.81;;;7.72;86.09
6668;BME280;3370;47.712;9.082;2024-03-23T09:28:37;96681.16;;;7.81;85.40
6668;BME280;3370;47.712;9.082;2024-03-23T09:31:24;96684.47;;;7.83;81.52
6668;BME280;3370;47.712;9.082;2024-03-23T09:34:10;96684.16;;;7.91;82.87
6668;BME280;3370;47.712;9.082;2024-03-23T09:36:56;96693.44;;;7.94;81.46
6668;BME280;3370;47.712;9.082;2024-03-23T09:39:42;96698.16;;;7.82;81.01
6668;BME280;3370;47.712;9.082;2024-03-23T09:42:28;96721.25;;;7.81;81.01
6668;BME280;3370;47.712;9.082;2024-03-23T09:45:21;96722.88;;;7.83;80.14
6668;BME280;3370;47.712;9.082;2024-03-23T09:48:08;96719.66;;;7.78;81.20
6668;BME280;3370;47.712;9.082;2024-03-23T09:50:57;96717.25;;;7.74;78.29
6668;BME280;3370;47.712;9.082;2024-03-23T09:53:43;96729.63;;;7.84;78.14
6668;BME280;3370;47.712;9.082;2024-03-23T09:56:29;96733.63;;;7.92;75.36
6668;BME280;3370;47.712;9.082;2024-03-23T09:59:15;96746.44;;;7.92;76.66
6668;BME280;3370;47.712;9.082;2024-03-23T10:02:02;96741.56;;;7.85;75.42
6668;BME280;3370;47.712;9.082;2024-03-23T10:04:48;96744.06;;;7.87;75.31
6668;BME280;3370;47.712;9.082;2024-03-23T10:07:34;96742.38;;;7.86;75.25
6668;BME280;3370;47.712;9.082;2024-03-23T10:10:20;96739.41;;;7.97;76.21
6668;BME280;3370;47.712;9.082;2024-03-23T10:13:10;96727.75;;;8.10;76.46
6668;BME280;3370;47.712;9.082;2024-03-23T10:15:59;96724.31;;;8.11;76.75
6668;BME280;3370;47.712;9.082;2024-03-23T10:18:45;96720.34;;;8.24;77.46
6668;BME280;3370;47.712;9.082;2024-03-23T10:21:31;96727.66;;;8.34;76.12
6668;BME280;3370;47.712;9.082;2024-03-23T10:24:17;96725.66;;;8.42;73.50
6668;BME280;3370;47.712;9.082;2024-03-23T10:27:03;96726.81;;;8.55;73.79
6668;BME280;3370;47.712;9.082;2024-03-23T10:29:50;96711.03;;;8.85;74.03
6668;BME280;3370;47.712;9.082;2024-03-23T10:32:36;96723.44;;;8.94;72.00
6668;BME280;3370;47.712;9.082;2024-03-23T10:35:23;96736.72;;;8.83;69.95
6668;BME280;3370;47.712;9.082;2024-03-23T10:38:09;96748.59;;;8.66;68.26
6668;BME280;3370;47.712;9.082;2024-03-23T10:40:56;96741.09;;;8.61;67.34
6668;BME280;3370;47.712;9.082;2024-03-23T10:43:45;96748.94;;;8.58;66.85
6668;BME280;3370;47.712;9.082;2024-03-23T10:46:31;96748.97;;;8.56;67.63
6668;BME280;3370;47.712;9.082;2024-03-23T10:49:17;96754.00;;;8.59;69.97
6668;BME280;3370;47.712;9.082;2024-03-23T10:52:05;96740.91;;;8.66;68.69
6668;BME280;3370;47.712;9.082;2024-03-23T10:54:52;96739.00;;;8.71;69.75
6668;BME280;3370;47.712;9.082;2024-03-23T10:57:44;96735.44;;;8.73;68.97
6668;BME280;3370;47.712;9.082;2024-03-23T11:00:31;96729.63;;;8.70;67.73
6668;BME280;3370;47.712;9.082;2024-03-23T11:03:34;96721.03;;;8.71;65.80
6668;BME280;3370;47.712;9.082;2024-03-23T11:06:37;96729.34;;;8.96;67.00
6668;BME280;3370;47.712;9.082;2024-03-23T11:09:43;96741.88;;;9.02;65.46
6668;BME280;3370;47.712;9.082;2024-03-23T11:12:31;96728.38;;;9.18;66.73
6668;BME280;3370;47.712;9.082;2024-03-23T11:15:19;96729.28;;;9.74;65.76
6668;BME280;3370;47.712;9.082;2024-03-23T11:18:06;96710.78;;;10.39;65.61
6668;BME280;3370;47.712;9.082;2024-03-23T11:20:56;96704.78;;;10.03;61.41
6668;BME280;3370;47.712;9.082;2024-03-23T11:23:43;96710.59;;;10.07;63.15
6668;BME280;3370;47.712;9.082;2024-03-23T11:26:29;96721.69;;;9.90;62.48
6668;BME280;3370;47.712;9.082;2024-03-23T11:29:17;96718.75;;;10.15;64.09
6668;BME280;3370;47.712;9.082;2024-03-23T11:32:04;96708.06;;;10.42;59.35
6668;BME280;3370;47.712;9.082;2024-03-23T11:34:50;96700.19;;;10.45;59.97
6668;BME280;3370;47.712;9.082;2024-03-23T11:37:37;96698.03;;;9.83;59.37
6668;BME280;3370;47.712;9.082;2024-03-23T11:40:23;96699.81;;;10.17;59.11
6668;BME280;3370;47.712;9.082;2024-03-23T11:43:18;96698.03;;;10.37;55.41
6668;BME280;3370;47.712;9.082;2024-03-23T11:46:05;96695.88;;;10.63;54.90
6668;BME280;3370;47.712;9.082;2024-03-23T11:48:51;96693.91;;;11.49;54.47
6668;BME280;3370;47.712;9.082;2024-03-23T11:51:37;96698.72;;;11.23;54.97
6668;BME280;3370;47.712;9.082;2024-03-23T11:54:25;96687.06;;;10.84;54.62
6668;BME280;3370;47.712;9.082;2024-03-23T11:57:11;96700.53;;;10.72;57.49
6668;BME280;3370;47.712;9.082;2024-03-23T11:59:57;96681.97;;;10.49;53.81
6668;BME280;3370;47.712;9.082;2024-03-23T12:02:43;96689.84;;;10.80;52.96
6668;BME280;3370;47.712;9.082;2024-03-23T12:05:30;96689.75;;;11.30;53.74
6668;BME280;3370;47.712;9.082;2024-03-23T12:08:33;96681.94;;;11.16;53.11
6668;BME280;3370;47.712;9.082;2024-03-23T12:11:19;96711.81;;;11.03;51.77
6668;BME280;3370;47.712;9.082;2024-03-23T12:14:05;96699.13;;;10.82;55.41
6668;BME280;3370;47.712;9.082;2024-03-23T12:16:51;96697.44;;;10.30;54.44
6668;BME280;3370;47.712;9.082;2024-03-23T12:19:38;96687.84;;;11.02;54.84
6668;BME280;3370;47.712;9.082;2024-03-23T12:22:24;96686.63;;;11.41;54.01
6668;BME280;3370;47.712;9.082;2024-03-23T12:25:10;96687.78;;;12.14;50.34
6668;BME280;3370;47.712;9.082;2024-03-23T12:27:59;96691.34;;;11.17;48.68
6668;BME280;3370;47.712;9.082;2024-03-23T12:30:45;96692.81;;;10.72;51.69
6668;BME280;3370;47.712;9.082;2024-03-23T12:33:32;96699.66;;;10.38;54.90
6668;BME280;3370;47.712;9.082;2024-03-23T12:36:18;96718.50;;;9.85;58.44
6668;BME280;3370;47.712;9.082;2024-03-23T12:39:04;96730.13;;;9.55;57.36
6668;BME280;3370;47.712;9.082;2024-03-23T12:41:50;96733.78;;;9.50;59.88
6668;BME280;3370;47.712;9.082;2024-03-23T12:44:37;96737.38;;;9.84;59.38
6668;BME280;3370;47.712;9.082;2024-03-23T12:47:23;96747.19;;;9.56;63.97
6668;BME280;3370;47.712;9.082;2024-03-23T12:50:10;96829.44;;;9.53;68.07
6668;BME280;3370;47.712;9.082;2024-03-23T12:52:57;96763.88;;;9.46;65.20
6668;BME280;3370;47.712;9.082;2024-03-23T12:55:43;96782.22;;;9.38;62.74
6668;BME280;3370;47.712;9.082;2024-03-23T12:58:29;96752.25;;;9.58;60.86
6668;BME280;3370;47.712;9.082;2024-03-23T13:01:15;96758.13;;;10.15;61.69
6668;BME280;3370;47.712;9.082;2024-03-23T13:04:01;96747.06;;;10.67;60.85
6668;BME280;3370;47.712;9.082;2024-03-23T13:06:48;96754.25;;;10.43;60.62
6668;BME280;3370;47.712;9.082;2024-03-23T13:09:34;96755.59;;;10.33;63.00
6668;BME280;3370;47.712;9.082;2024-03-23T13:12:20;96748.34;;;10.59;57.49
6668;BME280;3370;47.712;9.082;2024-03-23T13:15:07;96762.47;;;9.96;57.27
6668;BME280;3370;47.712;9.082;2024-03-23T13:17:53;96755.53;;;10.52;54.17
6668;BME280;3370;47.712;9.082;2024-03-23T13:20:39;96757.31;;;9.59;57.87
6668;BME280;3370;47.712;9.082;2024-03-23T13:23:26;96742.75;;;9.22;59.65
6668;BME280;3370;47.712;9.082;2024-03-23T13:26:12;96733.72;;;9.70;59.54
6668;BME280;3370;47.712;9.082;2024-03-23T13:28:58;96741.88;;;10.51;57.25
6668;BME280;3370;47.712;9.082;2024-03-23T13:31:44;96745.13;;;10.01;56.16
6668;BME280;3370;47.712;9.082;2024-03-23T13:34:30;96745.31;;;9.96;57.01
6668;BME280;3370;47.712;9.082;2024-03-23T13:37:16;96745.63;;;9.71;55.91
6668;BME280;3370;47.712;9.082;2024-03-23T13:40:02;96737.38;;;9.84;53.55
6668;BME280;3370;47.712;9.082;2024-03-23T13:42:48;96731.22;;;9.69;53.25
6668;BME280;3370;47.712;9.082;2024-03-23T13:45:34;96739.50;;;9.93;55.99
6668;BME280;3370;47.712;9.082;2024-03-23T13:48:24;96721.91;;;10.39;57.34
6668;BME280;3370;47.712;9.082;2024-03-23T13:51:10;96720.72;;;10.27;56.15
6668;BME280;3370;47.712;9.082;2024-03-23T13:53:57;96717.03;;;10.15;55.15
6668;BME280;3370;47.712;9.082;2024-03-23T13:56:43;96712.97;;;10.46;53.36
6668;BME280;3370;47.712;9.082;2024-03-23T13:59:30;96709.16;;;10.01;53.43
6668;BME280;3370;47.712;9.082;2024-03-23T14:02:16;96712.00;;;9.95;55.32
6668;BME280;3370;47.712;9.082;2024-03-23T14:05:02;96701.59;;;9.98;53.00
6668;BME280;3370;47.712;9.082;2024-03-23T14:07:48;96707.38;;;10.21;55.17
6668;BME280;3370;47.712;9.082;2024-03-23T14:10:35;96712.22;;;9.54;54.85
6668;BME280;3370;47.712;9.082;2024-03-23T14:13:24;96707.38;;;9.10;54.90
6668;BME280;3370;47.712;9.082;2024-03-23T14:16:10;96708.28;;;9.09;58.92
6668;BME280;3370;47.712;9.082;2024-03-23T14:18:57;96705.25;;;8.80;57.47
6668;BME280;3370;47.712;9.082;2024-03-23T14:21:43;96696.94;;;8.75;57.35
6668;BME280;3370;47.712;9.082;2024-03-23T14:24:29;96687.47;;;9.15;56.53
6668;BME280;3370;47.712;9.082;2024-03-23T14:27:15;96686.38;;;9.76;58.14
6668;BME280;3370;47.712;9.082;2024-03-23T14:30:01;96671.81;;;10.11;57.48
6668;BME280;3370;47.712;9.082;2024-03-23T14:32:48;96660.78;;;10.27;55.10
6668;BME280;3370;47.712;9.082;2024-03-23T14:35:34;96667.81;;;10.06;56.61
6668;BME280;3370;47.712;9.082;2024-03-23T14:38:20;96687.19;;;10.48;54.50
6668;BME280;3370;47.712;9.082;2024-03-23T14:41:06;96673.69;;;9.73;56.63
6668;BME280;3370;47.712;9.082;2024-03-23T14:43:52;96683.94;;;9.36;58.71
6668;BME280;3370;47.712;9.082;2024-03-23T14:46:40;96693.78;;;8.89;59.88
6668;BME280;3370;47.712;9.082;2024-03-23T14:49:26;96677.00;;;9.00;59.33
6668;BME280;3370;47.712;9.082;2024-03-23T14:52:15;96692.53;;;9.54;56.69
6668;BME280;3370;47.712;9.082;2024-03-23T14:55:01;96677.84;;;9.75;57.69
6668;BME280;3370;47.712;9.082;2024-03-23T14:57:48;96674.63;;;9.53;55.23
6668;BME280;3370;47.712;9.082;2024-03-23T15:00:36;96674.91;;;9.47;57.46
6668;BME280;3370;47.712;9.082;2024-03-23T15:03:22;96679.75;;;9.53;59.42
6668;BME280;3370;47.712;9.082;2024-03-23T15:06:08;96686.34;;;9.58;56.90
6668;BME280;3370;47.712;9.082;2024-03-23T15:08:55;96663.91;;;9.45;54.22
6668;BME280;3370;47.712;9.082;2024-03-23T15:11:41;96661.84;;;9.70;55.11
6668;BME280;3370;47.712;9.082;2024-03-23T15:14:27;96661.25;;;9.83;52.83
6668;BME280;3370;47.712;9.082;2024-03-23T15:17:13;96651.69;;;9.67;55.32
6668;BME280;3370;47.712;9.082;2024-03-23T15:19:59;96658.81;;;9.79;55.04
6668;BME280;3370;47.712;9.082;2024-03-23T15:22:45;96668.84;;;9.30;54.94
6668;BME280;3370;47.712;9.082;2024-03-23T15:25:31;96673.69;;;9.36;57.91
6668;BME280;3370;47.712;9.082;2024-03-23T15:28:17;96659.94;;;9.18;58.26
6668;BME280;3370;47.712;9.082;2024-03-23T15:31:10;96659.03;;;9.75;57.79
6668;BME280;3370;47.712;9.082;2024-03-23T15:33:56;96658.50;;;9.68;56.24
6668;BME280;3370;47.712;9.082;2024-03-23T15:36:42;96646.25;;;9.56;55.05
6668;BME280;3370;47.712;9.082;2024-03-23T15:39:30;96645.19;;;9.60;53.14
6668;BME280;3370;47.712;9.082;2024-03-23T15:42:16;96630.13;;;9.89;54.84
6668;BME280;3370;47.712;9.082;2024-03-23T15:45:02;96626.03;;;10.02;53.21
6668;BME280;3370;47.712;9.082;2024-03-23T15:47:53;96622.13;;;9.77;53.21
6668;BME280;3370;47.712;9.082;2024-03-23T15:50:39;96611.16;;;9.74;50.03
6668;BME280;3370;47.712;9.082;2024-03-23T15:53:26;96624.78;;;9.57;49.27
6668;BME280;3370;47.712;9.082;2024-03-23T15:56:12;96620.69;;;9.35;48.19
6668;BME280;3370;47.712;9.082;2024-03-23T15:58:59;96628.97;;;9.23;47.00
6668;BME280;3370;47.712;9.082;2024-03-23T16:01:51;96621.28;;;9.23;47.78
6668;BME280;3370;47.712;9.082;2024-03-23T16:04:37;96628.47;;;9.15;50.35
6668;BME280;3370;47.712;9.082;2024-03-23T16:07:23;96619.75;;;8.81;49.74